sensor_id;sensor_type;location;lat;lon;timestamp;pressure;altitude;pressure_sealevel;temperature;humidity
23677;BME280;31493;49.058;12.190;2022-10-16T00:01:56;96113.34;;;14.43;100.00
23677;BME280;31493;49.058;12.190;2022-10-16T00:04:23;96115.09;;;14.42;100.00
23677;BME280;31493;49.058;12.190;2022-10-16T00:06:50;96106.00;;;14.48;100.00
23677;BME280;31493;49.058;12.190;2022-10-16T00:09:18;96106.47;;;14.42;100.00
23677;BME280;31493;49.058;12.190;2022-10-16T00:11:45;96108.00;;;14.44;100.00
23677;BME280;31493;49.058;12.190;2022-10-16T00:14:14;96112.91;;;14.38;100.00
23677;BME280;31493;49.058;12.190;2022-10-16T00:16:41;96109.75;;;14.55;100.00
23677;BME280;31493;49.058;12.190;2022-10-16T00:19:09;96114.38;;;14.51;100.00
23677;BME280;31493;49.058;12.190;2022-10-16T00:21:37;96119.72;;;14.50;100.00
23677;BME280;31493;49.058;12.190;2022-10-16T00:24:06;96133.59;;;14.50;100.00
23677;BME280;31493;49.058;12.190;2022-10-16T00:26:36;96134.22;;;14.64;100.00
23677;BME280;31493;49.058;12.190;2022-10-16T00:29:04;96134.53;;;14.70;100.00
23677;BME280;31493;49.058;12.190;2022-10-16T00:31:31;96129.75;;;14.55;100.00
23677;BME280;31493;49.058;12.190;2022-10-16T00:33:58;96137.31;;;14.78;100.00
23677;BME280;31493;49.058;12.190;2022-10-16T00:36:26;96130.09;;;14.61;100.00
23677;BME280;31493;49.058;12.190;2022-10-16T00:38:54;96122.38;;;14.60;100.00
23677;BME280;31493;49.058;12.190;2022-10-16T00:41:24;96131.22;;;14.47;100.00
23677;BME280;31493;49.058;12.190;2022-10-16T00:43:54;96132.25;;;14.56;100.00
23677;BME280;31493;49.058;12.190;2022-10-16T00:46:24;96128.38;;;14.50;100.00
23677;BME280;31493;49.058;12.190;2022-10-16T00:48:55;96128.19;;;14.63;100.00
23677;BME280;31493;49.058;12.190;2022-10-16T00:51:28;96106.31;;;14.55;100.00
23677;BME280;31493;49.058;12.190;2022-10-16T00:53:57;96113.19;;;14.56;100.00
23677;BME280;31493;49.058;12.190;2022-10-16T00:56:24;96113.44;;;14.52;100.00
23677;BME280;31493;49.058;12.190;2022-10-16T00:58:53;96116.53;;;14.46;100.00
23677;BME280;31493;49.058;12.190;2022-10-16T01:01:20;96111.34;;;14.46;100.00
23677;BME280;31493;49.058;12.190;2022-10-16T01:03:47;96113.94;;;14.46;100.00
23677;BME280;31493;49.058;12.190;2022-10-16T01:06:24;96100.47;;;14.62;100.00
23677;BME280;31493;49.058;12.190;2022-10-16T01:09:04;96111.66;;;14.53;100.00
23677;BME280;31493;49.058;12.190;2022-10-16T01:11:38;96108.66;;;14.58;100.00
23677;BME280;31493;49.058;12.190;2022-10-16T01:14:14;96116.41;;;14.48;100.00
23677;BME280;31493;49.058;12.190;2022-10-16T01:16:49;96112.88;;;14.49;100.00
23677;BME280;31493;49.058;12.190;2022-10-16T01:19:25;96115.00;;;14.44;100.00
23677;BME280;31493;49.058;12.190;2022-10-16T01:21:53;96112.50;;;14.42;100.00
23677;BME280;31493;49.058;12.190;2022-10-16T01:24:30;96099.63;;;14.41;100.00
23677;BME280;31493;49.058;12.190;2022-10-16T01:27:13;96117.84;;;14.41;100.00
23677;BME280;31493;49.058;12.190;2022-10-16T01:29:49;96119.06;;;14.37;100.00
23677;BME280;31493;49.058;12.190;2022-10-16T01:32:23;96131.69;;;14.41;100.00
23677;BME280;31493;49.058;12.190;2022-10-16T01:34:54;96137.53;;;14.34;100.00
23677;BME280;31493;49.058;12.190;2022-10-16T01:37:35;96141.72;;;14.46;100.00
23677;BME280;31493;49.058;12.190;2022-10-16T01:40:06;96139.03;;;14.47;100.00
23677;BME280;31493;49.058;12.190;2022-10-16T01:42:40;96150.63;;;14.43;100.00
23677;BME280;31493;49.058;12.190;2022-10-16T01:45:11;96149.91;;;14.41;100.00
23677;BME280;31493;49.058;12.190;2022-10-16T01:47:40;96143.44;;;14.36;100.00
23677;BME280;31493;49.058;12.190;2022-10-16T01:50:09;96143.94;;;14.30;100.00
23677;BME280;31493;49.058;12.190;2022-10-16T01:52:40;96153.31;;;14.21;100.00
23677;BME280;31493;49.058;12.190;2022-10-16T01:55:10;96149.63;;;14.23;100.00
23677;BME280;31493;49.058;12.190;2022-10-16T01:57:44;96157.22;;;14.27;100.00
23677;BME280;31493;49.058;12.190;2022-10-16T02:00:14;96164.81;;;14.18;100.00
23677;BME280;31493;49.058;12.190;2022-10-16T02:02:47;96159.22;;;14.23;100.00
23677;BME280;31493;49.058;12.190;2022-10-16T02:05:18;96151.41;;;14.23;100.00
23677;BME280;31493;49.058;12.190;2022-10-16T02:07:47;96153.78;;;14.26;100.00
23677;BME280;31493;49.058;12.190;2022-10-16T02:10:15;96141.97;;;14.22;100.00
23677;BME280;31493;49.058;12.190;2022-10-16T02:12:46;96141.00;;;14.23;100.00
23677;BME280;31493;49.058;12.190;2022-10-16T02:15:16;96143.78;;;14.10;100.00
23677;BME280;31493;49.058;12.190;2022-10-16T02:17:43;96157.75;;;14.09;100.00
23677;BME280;31493;49.058;12.190;2022-10-16T02:20:10;96146.59;;;14.18;100.00
23677;BME280;31493;49.058;12.190;2022-10-16T02:22:39;96156.06;;;14.19;100.00
23677;BME280;31493;49.058;12.190;2022-10-16T02:25:10;96163.41;;;14.14;100.00
23677;BME280;31493;49.058;12.190;2022-10-16T02:27:42;96173.69;;;14.16;100.00
23677;BME280;31493;49.058;12.190;2022-10-16T02:30:19;96155.72;;;14.13;100.00
23677;BME280;31493;49.058;12.190;2022-10-16T02:32:49;96165.97;;;13.93;100.00
23677;BME280;31493;49.058;12.190;2022-10-16T02:35:18;96157.41;;;14.03;100.00
23677;BME280;31493;49.058;12.190;2022-10-16T02:37:47;96153.84;;;14.04;100.00
23677;BME280;31493;49.058;12.190;2022-10-16T02:40:16;96152.91;;;14.05;100.00
23677;BME280;31493;49.058;12.190;2022-10-16T02:42:44;96154.00;;;14.02;100.00
23677;BME280;31493;49.058;12.190;2022-10-16T02:45:11;96158.50;;;14.00;100.00
23677;BME280;31493;49.058;12.190;2022-10-16T02:47:39;96159.16;;;14.13;100.00
23677;BME280;31493;49.058;12.190;2022-10-16T02:50:07;96170.28;;;14.15;100.00
23677;BME280;31493;49.058;12.190;2022-10-16T02:52:34;96169.72;;;14.12;100.00
23677;BME280;31493;49.058;12.190;2022-10-16T02:55:01;96164.59;;;14.10;100.00
23677;BME280;31493;49.058;12.190;2022-10-16T02:57:28;96177.50;;;14.12;100.00
23677;BME280;31493;49.058;12.190;2022-10-16T02:59:57;96176.88;;;14.19;100.00
23677;BME280;31493;49.058;12.190;2022-10-16T03:02:25;96171.94;;;14.05;100.00
23677;BME280;31493;49.058;12.190;2022-10-16T03:04:54;96177.63;;;14.10;100.00
23677;BME280;31493;49.058;12.190;2022-10-16T03:07:21;96171.91;;;14.16;100.00
23677;BME280;31493;49.058;12.190;2022-10-16T03:09:48;96168.50;;;14.16;100.00
23677;BME280;31493;49.058;12.190;2022-10-16T03:12:15;96161.97;;;14.21;100.00
23677;BME280;31493;49.058;12.190;2022-10-16T03:14:42;96154.41;;;14.18;100.00
23677;BME280;31493;49.058;12.190;2022-10-16T03:17:09;96159.22;;;14.23;100.00
23677;BME280;31493;49.058;12.190;2022-10-16T03:19:36;96165.34;;;14.33;100.00
23677;BME280;31493;49.058;12.190;2022-10-16T03:22:04;96166.63;;;14.18;100.00
23677;BME280;31493;49.058;12.190;2022-10-16T03:24:31;96162.72;;;14.12;100.00
23677;BME280;31493;49.058;12.190;2022-10-16T03:26:58;96161.97;;;14.21;100.00
23677;BME280;31493;49.058;12.190;2022-10-16T03:29:26;96171.19;;;14.25;100.00
23677;BME280;31493;49.058;12.190;2022-10-16T03:31:55;96161.97;;;14.54;100.00
23677;BME280;31493;49.058;12.190;2022-10-16T03:34:22;96172.41;;;14.42;100.00
23677;BME280;31493;49.058;12.190;2022-10-16T03:36:49;96169.09;;;14.40;100.00
23677;BME280;31493;49.058;12.190;2022-10-16T03:39:18;96183.09;;;14.39;100.00
23677;BME280;31493;49.058;12.190;2022-10-16T03:41:45;96168.28;;;14.40;100.00
23677;BME280;31493;49.058;12.190;2022-10-16T03:44:13;96176.09;;;14.40;100.00
23677;BME280;31493;49.058;12.190;2022-10-16T03:46:40;96182.88;;;14.31;100.00
23677;BME280;31493;49.058;12.190;2022-10-16T03:49:07;96178.09;;;14.36;100.00
23677;BME280;31493;49.058;12.190;2022-10-16T03:51:34;96187.00;;;14.34;100.00
23677;BME280;31493;49.058;12.190;2022-10-16T03:54:01;96188.44;;;14.38;100.00
23677;BME280;31493;49.058;12.190;2022-10-16T03:56:30;96187.63;;;14.26;100.00
23677;BME280;31493;49.058;12.190;2022-10-16T03:58:56;96177.75;;;14.41;100.00
23677;BME280;31493;49.058;12.190;2022-10-16T04:01:23;96194.38;;;14.29;100.00
23677;BME280;31493;49.058;12.190;2022-10-16T04:03:50;96188.63;;;14.14;100.00
23677;BME280;31493;49.058;12.190;2022-10-16T04:06:17;96178.91;;;14.16;100.00
23677;BME280;31493;49.058;12.190;2022-10-16T04:08:44;96169.13;;;14.08;100.00
23677;BME280;31493;49.058;12.190;2022-10-16T04:11:12;96162.47;;;14.15;100.00
23677;BME280;31493;49.058;12.190;2022-10-16T04:13:40;96157.88;;;14.08;100.00
23677;BME280;31493;49.058;12.190;2022-10-16T04:16:07;96167.44;;;14.18;100.00
23677;BME280;31493;49.058;12.190;2022-10-16T04:18:34;96175.75;;;14.12;100.00
23677;BME280;31493;49.058;12.190;2022-10-16T04:21:03;96186.88;;;14.03;100.00
23677;BME280;31493;49.058;12.190;2022-10-16T04:23:30;96189.69;;;14.11;100.00
23677;BME280;31493;49.058;12.190;2022-10-16T04:25:57;96192.69;;;13.95;100.00
23677;BME280;31493;49.058;12.190;2022-10-16T04:28:24;96192.91;;;14.04;100.00
23677;BME280;31493;49.058;12.190;2022-10-16T04:30:53;96197.16;;;14.05;100.00
23677;BME280;31493;49.058;12.190;2022-10-16T04:33:21;96199.41;;;14.09;100.00
23677;BME280;31493;49.058;12.190;2022-10-16T04:35:48;96203.31;;;14.04;100.00
23677;BME280;31493;49.058;12.190;2022-10-16T04:38:15;96213.72;;;14.04;100.00
23677;BME280;31493;49.058;12.190;2022-10-16T04:40:42;96212.41;;;14.09;100.00
23677;BME280;31493;49.058;12.190;2022-10-16T04:43:09;96202.94;;;14.08;100.00
23677;BME280;31493;49.058;12.190;2022-10-16T04:45:36;96211.59;;;14.09;100.00
23677;BME280;31493;49.058;12.190;2022-10-16T04:48:04;96211.72;;;14.07;100.00
23677;BME280;31493;49.058;12.190;2022-10-16T04:50:31;96222.63;;;14.01;100.00
23677;BME280;31493;49.058;12.190;2022-10-16T04:52:58;96219.75;;;14.04;100.00
23677;BME280;31493;49.058;12.190;2022-10-16T04:55:25;96216.91;;;14.07;100.00
23677;BME280;31493;49.058;12.190;2022-10-16T04:57:52;96216.09;;;14.07;100.00
23677;BME280;31493;49.058;12.190;2022-10-16T05:00:19;96206.28;;;13.99;100.00
23677;BME280;31493;49.058;12.190;2022-10-16T05:02:49;96201.56;;;13.93;100.00
23677;BME280;31493;49.058;12.190;2022-10-16T05:05:17;96205.38;;;13.89;100.00
23677;BME280;31493;49.058;12.190;2022-10-16T05:07:45;96210.22;;;13.93;100.00
23677;BME280;31493;49.058;12.190;2022-10-16T05:10:12;96210.91;;;13.95;100.00
23677;BME280;31493;49.058;12.190;2022-10-16T05:12:39;96215.53;;;13.92;100.00
23677;BME280;31493;49.058;12.190;2022-10-16T05:15:07;96214.94;;;13.88;100.00
23677;BME280;31493;49.058;12.190;2022-10-16T05:17:34;96218.25;;;13.90;100.00
23677;BME280;31493;49.058;12.190;2022-10-16T05:20:01;96214.94;;;13.88;100.00
23677;BME280;31493;49.058;12.190;2022-10-16T05:22:30;96216.69;;;13.99;100.00
23677;BME280;31493;49.058;12.190;2022-10-16T05:24:57;96212.44;;;13.98;100.00
23677;BME280;31493;49.058;12.190;2022-10-16T05:27:24;96223.44;;;13.90;100.00
23677;BME280;31493;49.058;12.190;2022-10-16T05:29:51;96209.72;;;14.00;100.00
23677;BME280;31493;49.058;12.190;2022-10-16T05:32:18;96225.09;;;13.91;100.00
23677;BME280;31493;49.058;12.190;2022-10-16T05:34:45;96231.88;;;13.83;100.00
23677;BME280;31493;49.058;12.190;2022-10-16T05:37:12;96233.88;;;13.90;100.00
23677;BME280;31493;49.058;12.190;2022-10-16T05:39:41;96237.41;;;14.01;100.00
23677;BME280;31493;49.058;12.190;2022-10-16T05:42:08;96232.91;;;13.91;100.00
23677;BME280;31493;49.058;12.190;2022-10-16T05:44:35;96229.81;;;13.97;100.00
23677;BME280;31493;49.058;12.190;2022-10-16T05:47:02;96216.91;;;14.07;100.00
23677;BME280;31493;49.058;12.190;2022-10-16T05:49:29;96229.13;;;13.95;100.00
23677;BME280;31493;49.058;12.190;2022-10-16T05:51:56;96200.16;;;14.00;100.00
23677;BME280;31493;49.058;12.190;2022-10-16T05:54:23;96196.94;;;13.96;100.00
23677;BME280;31493;49.058;12.190;2022-10-16T05:56:51;96204.06;;;13.94;100.00
23677;BME280;31493;49.058;12.190;2022-10-16T05:59:18;96187.53;;;14.16;100.00
23677;BME280;31493;49.058;12.190;2022-10-16T06:01:45;96194.78;;;14.13;100.00
23677;BME280;31493;49.058;12.190;2022-10-16T06:04:12;96195.25;;;14.18;100.00
23677;BME280;31493;49.058;12.190;2022-10-16T06:06:39;96193.69;;;14.15;100.00
23677;BME280;31493;49.058;12.190;2022-10-16T06:09:06;96206.97;;;14.12;100.00
23677;BME280;31493;49.058;12.190;2022-10-16T06:11:33;96212.53;;;14.19;100.00
23677;BME280;31493;49.058;12.190;2022-10-16T06:14:02;96214.06;;;14.10;100.00
23677;BME280;31493;49.058;12.190;2022-10-16T06:16:33;96222.25;;;14.06;100.00
23677;BME280;31493;49.058;12.190;2022-10-16T06:19:00;96220.25;;;13.98;100.00
23677;BME280;31493;49.058;12.190;2022-10-16T06:21:28;96221.19;;;13.97;100.00
23677;BME280;31493;49.058;12.190;2022-10-16T06:23:56;96236.34;;;13.81;100.00
23677;BME280;31493;49.058;12.190;2022-10-16T06:26:25;96234.34;;;13.95;100.00
23677;BME280;31493;49.058;12.190;2022-10-16T06:28:54;96238.94;;;13.92;100.00
23677;BME280;31493;49.058;12.190;2022-10-16T06:31:23;96244.63;;;13.86;100.00
23677;BME280;31493;49.058;12.190;2022-10-16T06:33:54;96250.66;;;13.97;100.00
23677;BME280;31493;49.058;12.190;2022-10-16T06:36:23;96256.94;;;14.06;100.00
23677;BME280;31493;49.058;12.190;2022-10-16T06:38:50;96259.53;;;13.95;100.00
23677;BME280;31493;49.058;12.190;2022-10-16T06:41:20;96268.75;;;13.99;100.00
23677;BME280;31493;49.058;12.190;2022-10-16T06:43:47;96273.38;;;13.95;100.00
23677;BME280;31493;49.058;12.190;2022-10-16T06:46:16;96271.94;;;14.14;100.00
23677;BME280;31493;49.058;12.190;2022-10-16T06:48:45;96279.00;;;14.23;100.00
23677;BME280;31493;49.058;12.190;2022-10-16T06:51:13;96288.59;;;14.11;100.00
23677;BME280;31493;49.058;12.190;2022-10-16T06:53:42;96291.00;;;14.03;100.00
23677;BME280;31493;49.058;12.190;2022-10-16T06:56:11;96293.81;;;14.11;100.00
23677;BME280;31493;49.058;12.190;2022-10-16T06:58:38;96294.19;;;14.07;100.00
23677;BME280;31493;49.058;12.190;2022-10-16T07:01:05;96300.69;;;14.12;100.00
23677;BME280;31493;49.058;12.190;2022-10-16T07:03:33;96314.75;;;14.10;100.00
23677;BME280;31493;49.058;12.190;2022-10-16T07:06:05;96310.97;;;14.14;100.00
23677;BME280;31493;49.058;12.190;2022-10-16T07:08:32;96326.25;;;14.07;100.00
23677;BME280;31493;49.058;12.190;2022-10-16T07:11:00;96328.72;;;14.09;100.00
23677;BME280;31493;49.058;12.190;2022-10-16T07:13:28;96333.13;;;14.19;100.00
23677;BME280;31493;49.058;12.190;2022-10-16T07:15:55;96335.47;;;14.22;100.00
23677;BME280;31493;49.058;12.190;2022-10-16T07:18:22;96327.66;;;14.11;100.00
23677;BME280;31493;49.058;12.190;2022-10-16T07:20:52;96340.06;;;14.41;100.00
23677;BME280;31493;49.058;12.190;2022-10-16T07:23:21;96329.63;;;14.41;100.00
23677;BME280;31493;49.058;12.190;2022-10-16T07:25:53;96335.31;;;14.58;100.00
23677;BME280;31493;49.058;12.190;2022-10-16T07:28:21;96350.47;;;14.64;100.00
23677;BME280;31493;49.058;12.190;2022-10-16T07:30:48;96342.78;;;14.62;100.00
23677;BME280;31493;49.058;12.190;2022-10-16T07:33:16;96343.31;;;14.77;100.00
23677;BME280;31493;49.058;12.190;2022-10-16T07:35:49;96343.38;;;14.98;100.00
23677;BME280;31493;49.058;12.190;2022-10-16T07:38:17;96340.41;;;14.91;100.00
23677;BME280;31493;49.058;12.190;2022-10-16T07:40:46;96336.25;;;14.68;100.00
23677;BME280;31493;49.058;12.190;2022-10-16T07:43:13;96338.44;;;14.84;100.00
23677;BME280;31493;49.058;12.190;2022-10-16T07:45:47;96342.34;;;14.89;100.00
23677;BME280;31493;49.058;12.190;2022-10-16T07:48:16;96335.22;;;14.91;100.00
23677;BME280;31493;49.058;12.190;2022-10-16T07:50:43;96339.81;;;14.99;100.00
23677;BME280;31493;49.058;12.190;2022-10-16T07:53:11;96341.94;;;15.05;100.00
23677;BME280;31493;49.058;12.190;2022-10-16T07:55:39;96352.22;;;15.07;100.00
23677;BME280;31493;49.058;12.190;2022-10-16T07:58:07;96360.56;;;15.21;100.00
23677;BME280;31493;49.058;12.190;2022-10-16T08:00:36;96351.56;;;15.25;100.00
23677;BME280;31493;49.058;12.190;2022-10-16T08:03:03;96360.66;;;15.31;100.00
23677;BME280;31493;49.058;12.190;2022-10-16T08:05:32;96362.16;;;15.66;100.00
23677;BME280;31493;49.058;12.190;2022-10-16T08:07:59;96353.09;;;15.49;100.00
23677;BME280;31493;49.058;12.190;2022-10-16T08:10:27;96352.81;;;15.52;100.00
23677;BME280;31493;49.058;12.190;2022-10-16T08:12:55;96355.56;;;15.50;100.00
23677;BME280;31493;49.058;12.190;2022-10-16T08:15:23;96360.38;;;15.66;100.00
23677;BME280;31493;49.058;12.190;2022-10-16T08:17:58;96364.25;;;15.72;100.00
23677;BME280;31493;49.058;12.190;2022-10-16T08:20:26;96375.75;;;15.48;100.00
23677;BME280;31493;49.058;12.190;2022-10-16T08:22:53;96379.41;;;15.46;100.00
23677;BME280;31493;49.058;12.190;2022-10-16T08:25:21;96379.84;;;15.62;100.00
23677;BME280;31493;49.058;12.190;2022-10-16T08:27:48;96382.34;;;15.84;100.00
23677;BME280;31493;49.058;12.190;2022-10-16T08:30:16;96379.72;;;15.84;100.00
23677;BME280;31493;49.058;12.190;2022-10-16T08:32:44;96389.59;;;16.11;100.00
23677;BME280;31493;49.058;12.190;2022-10-16T08:35:12;96387.38;;;16.07;100.00
23677;BME280;31493;49.058;12.190;2022-10-16T08:37:41;96388.91;;;16.09;100.00
23677;BME280;31493;49.058;12.190;2022-10-16T08:40:17;96383.13;;;16.06;100.00
23677;BME280;31493;49.058;12.190;2022-10-16T08:43:02;96382.06;;;15.88;100.00
23677;BME280;31493;49.058;12.190;2022-10-16T08:45:37;96394.44;;;15.85;100.00
23677;BME280;31493;49.058;12.190;2022-10-16T08:48:16;96384.13;;;15.84;100.00
23677;BME280;31493;49.058;12.190;2022-10-16T08:50:47;96381.16;;;15.77;100.00
23677;BME280;31493;49.058;12.190;2022-10-16T08:53:17;96390.75;;;15.67;100.00
23677;BME280;31493;49.058;12.190;2022-10-16T08:55:50;96389.44;;;15.62;100.00
23677;BME280;31493;49.058;12.190;2022-10-16T08:58:19;96383.22;;;15.53;100.00
23677;BME280;31493;49.058;12.190;2022-10-16T09:00:50;96378.88;;;15.63;100.00
23677;BME280;31493;49.058;12.190;2022-10-16T09:03:47;96377.94;;;15.85;100.00
23677;BME280;31493;49.058;12.190;2022-10-16T09:06:26;96376.31;;;15.52;100.00
23677;BME280;31493;49.058;12.190;2022-10-16T09:09:08;96383.06;;;15.54;100.00
23677;BME280;31493;49.058;12.190;2022-10-16T09:11:45;96371.59;;;15.78;100.00
23677;BME280;31493;49.058;12.190;2022-10-16T09:14:30;96376.63;;;15.58;100.00
23677;BME280;31493;49.058;12.190;2022-10-16T09:17:12;96388.25;;;15.66;100.00
23677;BME280;31493;49.058;12.190;2022-10-16T09:19:46;96373.97;;;15.70;100.00
23677;BME280;31493;49.058;12.190;2022-10-16T09:22:21;96379.84;;;15.83;100.00
23677;BME280;31493;49.058;12.190;2022-10-16T09:24:51;96380.34;;;15.98;100.00
23677;BME280;31493;49.058;12.190;2022-10-16T09:27:18;96381.25;;;16.18;100.00
23677;BME280;31493;49.058;12.190;2022-10-16T09:29:46;96363.59;;;16.41;100.00
23677;BME280;31493;49.058;12.190;2022-10-16T09:32:16;96367.16;;;16.80;100.00
23677;BME280;31493;49.058;12.190;2022-10-16T09:34:48;96376.66;;;16.81;100.00
23677;BME280;31493;49.058;12.190;2022-10-16T09:37:18;96379.28;;;17.00;100.00
23677;BME280;31493;49.058;12.190;2022-10-16T09:39:48;96374.34;;;17.16;100.00
23677;BME280;31493;49.058;12.190;2022-10-16T09:42:17;96373.13;;;17.30;100.00
23677;BME280;31493;49.058;12.190;2022-10-16T09:44:47;96388.13;;;17.28;100.00
23677;BME280;31493;49.058;12.190;2022-10-16T09:47:16;96388.69;;;17.22;100.00
23677;BME280;31493;49.058;12.190;2022-10-16T09:49:51;96400.25;;;17.39;100.00
23677;BME280;31493;49.058;12.190;2022-10-16T09:52:19;96400.94;;;17.22;100.00
23677;BME280;31493;49.058;12.190;2022-10-16T09:54:51;96407.97;;;17.60;100.00
23677;BME280;31493;49.058;12.190;2022-10-16T09:57:19;96419.94;;;17.43;100.00
23677;BME280;31493;49.058;12.190;2022-10-16T09:59:47;96423.41;;;17.63;100.00
23677;BME280;31493;49.058;12.190;2022-10-16T10:02:16;96428.91;;;17.69;100.00
23677;BME280;31493;49.058;12.190;2022-10-16T10:04:48;96428.09;;;17.69;100.00
23677;BME280;31493;49.058;12.190;2022-10-16T10:07:24;96422.44;;;17.25;100.00
23677;BME280;31493;49.058;12.190;2022-10-16T10:09:52;96431.34;;;17.03;100.00
23677;BME280;31493;49.058;12.190;2022-10-16T10:12:21;96427.78;;;17.14;100.00
23677;BME280;31493;49.058;12.190;2022-10-16T10:14:51;96433.03;;;17.43;100.00
23677;BME280;31493;49.058;12.190;2022-10-16T10:17:21;96442.13;;;17.49;100.00
23677;BME280;31493;49.058;12.190;2022-10-16T10:19:51;96434.28;;;17.39;100.00
23677;BME280;31493;49.058;12.190;2022-10-16T10:22:29;96427.09;;;17.41;100.00
23677;BME280;31493;49.058;12.190;2022-10-16T10:25:00;96435.66;;;17.62;100.00
23677;BME280;31493;49.058;12.190;2022-10-16T10:27:41;96427.53;;;17.85;100.00
23677;BME280;31493;49.058;12.190;2022-10-16T10:30:15;96423.66;;;17.69;100.00
23677;BME280;31493;49.058;12.190;2022-10-16T10:32:53;96413.59;;;17.84;100.00
23677;BME280;31493;49.058;12.190;2022-10-16T10:35:30;96421.81;;;18.09;100.00
23677;BME280;31493;49.058;12.190;2022-10-16T10:38:20;96422.69;;;17.99;100.00
23677;BME280;31493;49.058;12.190;2022-10-16T10:40:54;96410.31;;;17.53;100.00
23677;BME280;31493;49.058;12.190;2022-10-16T10:43:33;96423.94;;;17.95;100.00
23677;BME280;31493;49.058;12.190;2022-10-16T10:46:10;96425.03;;;17.54;100.00
23677;BME280;31493;49.058;12.190;2022-10-16T10:49:01;96424.91;;;17.94;100.00
23677;BME280;31493;49.058;12.190;2022-10-16T10:51:39;96412.09;;;17.82;100.00
23677;BME280;31493;49.058;12.190;2022-10-16T10:54:17;96421.72;;;18.01;100.00
23677;BME280;31493;49.058;12.190;2022-10-16T10:56:51;96420.03;;;18.09;100.00
23677;BME280;31493;49.058;12.190;2022-10-16T11:02:17;96434.25;;;17.97;100.00
23677;BME280;31493;49.058;12.190;2022-10-16T11:05:05;96416.06;;;18.05;100.00
23677;BME280;31493;49.058;12.190;2022-10-16T11:07:40;96415.63;;;18.10;100.00
23677;BME280;31493;49.058;12.190;2022-10-16T11:10:15;96416.59;;;18.09;100.00
23677;BME280;31493;49.058;12.190;2022-10-16T11:12:47;96423.38;;;17.92;100.00
23677;BME280;31493;49.058;12.190;2022-10-16T11:15:19;96418.28;;;17.90;100.00
23677;BME280;31493;49.058;12.190;2022-10-16T11:17:50;96407.50;;;18.03;100.00
23677;BME280;31493;49.058;12.190;2022-10-16T11:20:21;96402.81;;;18.07;100.00
23677;BME280;31493;49.058;12.190;2022-10-16T11:22:53;96419.78;;;18.03;100.00
23677;BME280;31493;49.058;12.190;2022-10-16T11:25:25;96416.53;;;18.28;100.00
23677;BME280;31493;49.058;12.190;2022-10-16T11:27:57;96425.97;;;18.11;100.00
23677;BME280;31493;49.058;12.190;2022-10-16T11:30:29;96411.50;;;17.97;100.00
23677;BME280;31493;49.058;12.190;2022-10-16T11:33:04;96420.75;;;18.48;100.00
23677;BME280;31493;49.058;12.190;2022-10-16T11:35:41;96417.06;;;18.78;100.00
23677;BME280;31493;49.058;12.190;2022-10-16T11:38:15;96420.53;;;18.97;99.09
23677;BME280;31493;49.058;12.190;2022-10-16T11:40:48;96417.06;;;18.96;100.00
23677;BME280;31493;49.058;12.190;2022-10-16T11:43:26;96430.56;;;19.01;100.00
23677;BME280;31493;49.058;12.190;2022-10-16T11:45:55;96414.63;;;18.67;100.00
23677;BME280;31493;49.058;12.190;2022-10-16T11:48:28;96413.94;;;18.56;98.68
23677;BME280;31493;49.058;12.190;2022-10-16T11:51:05;96411.34;;;18.83;100.00
23677;BME280;31493;49.058;12.190;2022-10-16T11:53:41;96412.31;;;19.63;99.39
23677;BME280;31493;49.058;12.190;2022-10-16T11:56:13;96409.16;;;19.77;99.06
23677;BME280;31493;49.058;12.190;2022-10-16T11:58:51;96399.44;;;19.96;97.72
23677;BME280;31493;49.058;12.190;2022-10-16T12:01:27;96400.66;;;20.35;93.28
23677;BME280;31493;49.058;12.190;2022-10-16T12:04:13;96413.41;;;19.96;92.14
23677;BME280;31493;49.058;12.190;2022-10-16T12:06:44;96404.16;;;20.18;96.87
23677;BME280;31493;49.058;12.190;2022-10-16T12:09:20;96407.63;;;20.45;94.42
23677;BME280;31493;49.058;12.190;2022-10-16T12:11:50;96404.03;;;20.46;91.72
23677;BME280;31493;49.058;12.190;2022-10-16T12:14:37;96403.22;;;20.45;89.70
23677;BME280;31493;49.058;12.190;2022-10-16T12:17:24;96405.41;;;21.00;88.41
23677;BME280;31493;49.058;12.190;2022-10-16T12:19:59;96407.78;;;21.36;91.23
23677;BME280;31493;49.058;12.190;2022-10-16T12:22:28;96402.56;;;20.25;90.76
23677;BME280;31493;49.058;12.190;2022-10-16T12:24:56;96395.78;;;20.75;90.73
23677;BME280;31493;49.058;12.190;2022-10-16T12:27:29;96388.78;;;21.16;90.44
23677;BME280;31493;49.058;12.190;2022-10-16T12:29:57;96391.47;;;20.39;91.71
23677;BME280;31493;49.058;12.190;2022-10-16T12:32:33;96397.03;;;20.02;90.92
23677;BME280;31493;49.058;12.190;2022-10-16T12:35:02;96401.59;;;19.74;93.43
23677;BME280;31493;49.058;12.190;2022-10-16T12:37:32;96395.22;;;20.37;91.53
23677;BME280;31493;49.058;12.190;2022-10-16T12:40:11;96395.00;;;20.22;90.92
23677;BME280;31493;49.058;12.190;2022-10-16T12:42:41;96391.06;;;19.56;93.42
23677;BME280;31493;49.058;12.190;2022-10-16T12:45:24;96392.38;;;20.48;90.02
23677;BME280;31493;49.058;12.190;2022-10-16T12:47:53;96388.44;;;20.52;90.12
23677;BME280;31493;49.058;12.190;2022-10-16T12:50:28;96400.41;;;20.47;91.16
23677;BME280;31493;49.058;12.190;2022-10-16T12:52:56;96398.22;;;20.08;93.04
23677;BME280;31493;49.058;12.190;2022-10-16T12:55:24;96414.22;;;19.97;95.92
23677;BME280;31493;49.058;12.190;2022-10-16T12:58:04;96416.28;;;19.85;97.53
23677;BME280;31493;49.058;12.190;2022-10-16T13:00:41;96418.56;;;19.62;96.71